createdAt,value
2023-09-08T00:01:09.693Z,49.61
2023-09-08T00:03:38.575Z,48.93
2023-09-08T00:06:05.236Z,49.40
2023-09-08T00:08:32.078Z,50.26
2023-09-08T00:11:00.923Z,50.63
2023-09-08T00:13:27.453Z,50.91
2023-09-08T00:15:57.068Z,50.65
2023-09-08T00:18:23.972Z,50.95
2023-09-08T00:20:50.598Z,49.81
2023-09-08T00:23:17.436Z,49.15
2023-09-08T00:25:44.264Z,49.33
2023-09-08T00:28:10.918Z,49.39
2023-09-08T00:30:37.555Z,49.39
2023-09-08T00:33:06.578Z,48.90
2023-09-08T00:35:34.340Z,48.83
2023-09-08T00:38:05.369Z,49.33
2023-09-08T00:40:33.081Z,50.50
2023-09-08T00:42:59.804Z,50.73
2023-09-08T00:45:26.514Z,50.94
2023-09-08T00:47:53.405Z,50.82
2023-09-08T00:50:20.833Z,51.53
2023-09-08T00:52:47.464Z,51.83
2023-09-08T00:55:14.245Z,52.02
2023-09-08T00:57:40.825Z,51.25
2023-09-08T01:00:07.679Z,52.07
2023-09-08T01:02:35.252Z,51.84
2023-09-08T01:05:02.555Z,53.94
2023-09-08T01:07:31.312Z,54.22
2023-09-08T01:09:57.998Z,54.27
2023-09-08T01:12:24.846Z,55.26
2023-09-08T01:14:52.291Z,53.75
2023-09-08T01:17:18.895Z,53.55
2023-09-08T01:19:47.281Z,53.56
2023-09-08T01:22:14.309Z,53.07
2023-09-08T01:24:43.173Z,53.07
2023-09-08T01:27:12.322Z,52.93
2023-09-08T01:29:38.948Z,53.29
2023-09-08T01:32:08.114Z,53.76
2023-09-08T01:34:34.811Z,54.32
2023-09-08T01:37:01.751Z,54.59
2023-09-08T01:39:28.481Z,55.61
2023-09-08T01:41:56.362Z,56.61
2023-09-08T01:44:25.360Z,56.61
2023-09-08T01:46:52.199Z,56.96
2023-09-08T01:49:21.338Z,56.28
2023-09-08T01:51:47.986Z,57.35
2023-09-08T01:54:14.860Z,57.93
2023-09-08T01:56:43.850Z,57.27
2023-09-08T01:59:10.709Z,56.58
2023-09-08T02:01:37.343Z,56.80
2023-09-08T02:04:04.017Z,56.76
2023-09-08T02:06:30.908Z,57.14
2023-09-08T02:08:57.621Z,57.58
2023-09-08T02:11:24.364Z,57.20
2023-09-08T02:13:51.021Z,57.22
2023-09-08T02:16:17.928Z,57.05
2023-09-08T02:18:44.652Z,56.26
2023-09-08T02:21:11.493Z,55.71
2023-09-08T02:23:38.144Z,55.90
2023-09-08T02:26:05.002Z,56.63
2023-09-08T02:28:34.260Z,56.20
2023-09-08T02:31:01.128Z,55.67
2023-09-08T02:33:28.133Z,54.00
2023-09-08T02:35:54.812Z,54.36
2023-09-08T02:38:21.453Z,53.87
2023-09-08T02:43:39.253Z,54.93
2023-09-08T02:46:07.211Z,54.50
2023-09-08T02:48:34.349Z,54.83
2023-09-08T02:51:01.085Z,54.43
2023-09-08T02:53:27.879Z,54.20
2023-09-08T02:55:54.655Z,54.15
2023-09-08T02:58:21.546Z,54.59
2023-09-08T03:00:48.167Z,53.74
2023-09-08T03:03:15.039Z,53.36
2023-09-08T03:05:41.693Z,53.12
2023-09-08T03:08:08.579Z,53.41
2023-09-08T03:10:42.663Z,54.33
2023-09-08T03:13:09.261Z,53.86
2023-09-08T03:15:38.172Z,53.69
2023-09-08T03:18:04.877Z,53.37
2023-09-08T03:20:31.659Z,53.59
2023-09-08T03:22:59.992Z,53.64
2023-09-08T03:25:26.768Z,53.50
2023-09-08T03:27:53.415Z,53.47
2023-09-08T03:30:19.954Z,52.99
2023-09-08T03:32:47.130Z,52.42
2023-09-08T03:35:13.951Z,52.59
2023-09-08T03:37:41.395Z,52.76
2023-09-08T03:40:08.059Z,53.11
2023-09-08T03:42:37.130Z,53.00
2023-09-08T03:45:03.724Z,55.29
2023-09-08T03:47:32.810Z,53.98
2023-09-08T03:49:59.562Z,54.39
2023-09-08T03:52:26.435Z,53.65
2023-09-08T03:54:53.052Z,54.69
2023-09-08T03:57:19.934Z,55.27
2023-09-08T03:59:46.557Z,55.69
2023-09-08T04:02:15.800Z,56.06
2023-09-08T04:04:42.751Z,55.13
2023-09-08T04:07:09.496Z,54.85
2023-09-08T04:09:36.434Z,55.34
2023-09-08T04:12:03.229Z,54.98
2023-09-08T04:14:43.360Z,54.75
2023-09-08T04:17:29.925Z,55.61
2023-09-08T04:19:57.118Z,56.90
2023-09-08T04:22:26.150Z,56.03
2023-09-08T04:24:54.007Z,56.26
2023-09-08T04:27:21.789Z,56.76
2023-09-08T04:29:50.768Z,55.90
2023-09-08T04:32:18.701Z,55.01
2023-09-08T04:34:46.192Z,56.07
2023-09-08T04:37:13.806Z,55.43
2023-09-08T04:39:40.876Z,55.85
2023-09-08T04:42:08.566Z,57.86
2023-09-08T04:44:37.645Z,57.72
2023-09-08T04:47:04.661Z,57.98
2023-09-08T04:49:33.891Z,58.43
2023-09-08T04:52:08.025Z,59.11
2023-09-08T04:54:34.684Z,58.40
2023-09-08T04:57:12.258Z,57.67
2023-09-08T04:59:48.246Z,58.86
2023-09-08T05:02:18.221Z,58.83
2023-09-08T05:04:45.092Z,58.53
2023-09-08T05:07:11.692Z,58.37
2023-09-08T05:09:40.407Z,58.54
2023-09-08T05:12:07.279Z,56.58
2023-09-08T05:14:34.078Z,56.26
2023-09-08T05:17:01.005Z,55.34
2023-09-08T05:19:27.826Z,56.05
2023-09-08T05:24:36.379Z,55.20
2023-09-08T05:27:03.867Z,55.63
2023-09-08T05:29:30.471Z,56.16
2023-09-08T05:31:57.096Z,55.66
2023-09-08T05:34:26.152Z,55.99
2023-09-08T05:36:53.560Z,55.68
2023-09-08T05:39:20.323Z,54.65
2023-09-08T05:41:49.213Z,55.01
2023-09-08T05:44:15.991Z,54.93
2023-09-08T05:46:43.277Z,53.36
2023-09-08T05:49:10.661Z,50.53
2023-09-08T05:51:37.637Z,49.48
2023-09-08T05:54:05.368Z,48.55
2023-09-08T05:56:34.009Z,48.15
2023-09-08T05:59:00.808Z,47.90
2023-09-08T06:01:30.546Z,48.31
2023-09-08T06:03:57.666Z,47.95
2023-09-08T06:06:24.969Z,48.30
2023-09-08T06:08:53.909Z,48.82
2023-09-08T06:11:20.688Z,48.95
2023-09-08T06:13:47.288Z,49.38
2023-09-08T06:16:16.138Z,49.27
2023-09-08T06:18:44.940Z,48.96
2023-09-08T06:21:11.598Z,48.52
2023-09-08T06:23:38.342Z,48.66
2023-09-08T06:26:05.831Z,48.17
2023-09-08T06:28:32.444Z,48.78
2023-09-08T06:30:59.096Z,48.80
2023-09-08T06:33:30.507Z,48.60
2023-09-08T06:35:57.641Z,48.57
2023-09-08T06:38:26.052Z,48.47
2023-09-08T06:40:57.843Z,48.52
2023-09-08T06:43:24.622Z,48.29
2023-09-08T06:45:51.674Z,47.57
2023-09-08T06:48:18.471Z,48.08
2023-09-08T06:50:46.879Z,46.95
2023-09-08T06:53:13.652Z,46.64
2023-09-08T06:55:44.730Z,45.35
2023-09-08T06:58:11.841Z,45.35
2023-09-08T07:03:07.445Z,44.95
2023-09-08T07:05:35.646Z,43.31
2023-09-08T07:08:02.280Z,41.96
2023-09-08T07:10:29.191Z,41.32
2023-09-08T07:12:55.815Z,41.58
2023-09-08T07:15:22.751Z,41.34
2023-09-08T07:17:52.862Z,41.92
2023-09-08T07:20:21.661Z,41.69
2023-09-08T07:22:48.611Z,41.72
2023-09-08T07:25:15.292Z,41.80
2023-09-08T07:27:42.227Z,43.08
2023-09-08T07:30:09.853Z,42.65
2023-09-08T07:32:36.845Z,42.74
2023-09-08T07:35:03.996Z,42.63
2023-09-08T07:37:30.777Z,43.45
2023-09-08T07:39:58.666Z,43.90
2023-09-08T07:42:25.689Z,44.42
2023-09-08T07:47:32.642Z,44.61
2023-09-08T07:49:59.592Z,45.52
2023-09-08T07:52:26.222Z,46.31
2023-09-08T07:54:54.070Z,46.25
2023-09-08T07:57:27.830Z,46.64
2023-09-08T07:59:54.781Z,46.15
2023-09-08T08:02:22.408Z,46.66
2023-09-08T08:04:49.555Z,47.85
2023-09-08T08:07:16.816Z,46.92
2023-09-08T08:09:54.608Z,46.81
2023-09-08T08:12:21.203Z,47.24
2023-09-08T08:14:48.156Z,48.31
2023-09-08T08:17:14.903Z,48.45
2023-09-08T08:19:43.674Z,47.41
2023-09-08T08:22:10.193Z,47.46
2023-09-08T08:24:37.614Z,47.25
2023-09-08T08:27:04.266Z,49.00
2023-09-08T08:29:31.014Z,47.55
2023-09-08T08:31:57.955Z,47.55
2023-09-08T08:34:24.984Z,46.66
2023-09-08T08:36:51.911Z,48.76
2023-09-08T08:39:19.505Z,48.16
2023-09-08T08:41:46.373Z,48.75
2023-09-08T08:44:12.951Z,48.04
2023-09-08T08:46:40.350Z,48.71
2023-09-08T08:49:14.519Z,46.89
2023-09-08T08:51:41.230Z,46.89
2023-09-08T08:54:10.174Z,46.43
2023-09-08T08:56:36.786Z,47.00
2023-09-08T08:59:08.640Z,46.84
2023-09-08T09:01:35.572Z,47.45
2023-09-08T09:04:02.844Z,47.53
2023-09-08T09:06:29.778Z,47.03
2023-09-08T09:08:57.513Z,46.57
2023-09-08T09:11:25.070Z,46.20
2023-09-08T09:13:52.900Z,45.96
2023-09-08T09:16:19.879Z,46.29
2023-09-08T09:18:47.003Z,46.75
2023-09-08T09:21:15.399Z,47.22
2023-09-08T09:23:42.154Z,47.17
2023-09-08T09:26:09.231Z,48.02
2023-09-08T09:28:36.952Z,48.01
2023-09-08T09:31:03.913Z,47.15
2023-09-08T09:33:30.875Z,47.64
2023-09-08T09:35:58.541Z,48.00
2023-09-08T09:38:27.570Z,47.50
2023-09-08T09:40:56.849Z,47.09
2023-09-08T09:43:23.567Z,46.23
2023-09-08T09:45:50.660Z,47.13
2023-09-08T09:48:19.203Z,46.02
2023-09-08T09:50:46.086Z,45.35
2023-09-08T09:53:13.028Z,45.55
2023-09-08T09:55:40.524Z,45.09
2023-09-08T09:58:09.788Z,45.79
2023-09-08T10:00:36.701Z,44.54
2023-09-08T10:03:03.686Z,45.16
2023-09-08T10:05:32.260Z,46.35
2023-09-08T10:07:59.082Z,46.40
2023-09-08T10:10:25.692Z,46.84
2023-09-08T10:12:52.569Z,45.86
2023-09-08T10:15:21.249Z,46.75
2023-09-08T10:17:51.425Z,43.31
2023-09-08T10:20:20.144Z,44.46
2023-09-08T10:22:46.902Z,41.92
2023-09-08T10:25:14.330Z,42.80
2023-09-08T10:27:41.730Z,44.48
2023-09-08T10:30:08.530Z,44.86
2023-09-08T10:32:39.240Z,44.89
2023-09-08T10:37:34.335Z,43.06
2023-09-08T10:40:01.767Z,43.17
2023-09-08T10:42:38.000Z,41.64
2023-09-08T10:45:04.683Z,42.45
2023-09-08T10:47:31.269Z,42.15
2023-09-08T10:50:00.741Z,43.11
2023-09-08T10:52:28.237Z,43.59
2023-09-08T10:54:56.119Z,42.54
2023-09-08T10:57:23.566Z,43.27
2023-09-08T10:59:56.034Z,43.41
2023-09-08T11:02:29.925Z,43.10
2023-09-08T11:04:56.756Z,42.84
2023-09-08T11:07:31.860Z,43.08
2023-09-08T11:09:58.547Z,41.89
2023-09-08T11:12:25.136Z,42.39
2023-09-08T11:14:54.583Z,42.14
2023-09-08T11:17:24.164Z,42.45
2023-09-08T11:19:51.105Z,42.00
2023-09-08T11:22:18.688Z,41.71
2023-09-08T11:24:45.783Z,41.43
2023-09-08T11:27:12.510Z,41.55
2023-09-08T11:30:11.341Z,42.29
2023-09-08T11:32:39.464Z,42.17
2023-09-08T11:35:07.001Z,40.86
2023-09-08T11:37:33.786Z,40.22
2023-09-08T11:40:02.330Z,40.05
2023-09-08T11:42:30.274Z,39.85
2023-09-08T11:44:58.057Z,39.70
2023-09-08T11:47:29.919Z,40.49
2023-09-08T11:49:56.801Z,40.90
2023-09-08T11:52:23.945Z,39.80
2023-09-08T11:55:05.907Z,40.65
2023-09-08T11:57:35.197Z,39.69
2023-09-08T12:00:06.184Z,39.85
2023-09-08T12:02:42.681Z,40.73
2023-09-08T12:05:10.378Z,39.89
2023-09-08T12:07:39.758Z,38.74
2023-09-08T12:10:06.583Z,38.25
2023-09-08T12:12:33.879Z,39.14
2023-09-08T12:15:00.421Z,38.59
2023-09-08T12:17:27.399Z,38.75
2023-09-08T12:19:54.405Z,38.96
2023-09-08T12:22:21.115Z,38.79
2023-09-08T12:24:48.649Z,39.53
2023-09-08T12:27:15.516Z,39.42
2023-09-08T12:29:42.190Z,38.75
2023-09-08T12:32:10.744Z,37.75
2023-09-08T12:34:37.436Z,38.01
2023-09-08T12:37:04.210Z,37.48
2023-09-08T12:39:31.384Z,37.61
2023-09-08T12:42:00.314Z,37.65
2023-09-08T12:44:35.777Z,37.34
2023-09-08T12:47:03.443Z,37.05
2023-09-08T12:49:30.413Z,36.98
2023-09-08T12:51:57.284Z,37.24
2023-09-08T12:54:24.746Z,37.90
2023-09-08T12:56:51.452Z,37.27
2023-09-08T12:59:21.032Z,37.55
2023-09-08T13:01:48.922Z,37.82
2023-09-08T13:06:56.133Z,39.24
2023-09-08T13:09:25.773Z,38.55
2023-09-08T13:11:52.462Z,38.64
2023-09-08T13:14:23.559Z,38.94
2023-09-08T13:16:50.172Z,37.68
2023-09-08T13:19:17.134Z,38.32
2023-09-08T13:21:46.834Z,38.34
2023-09-08T13:24:20.940Z,37.43
2023-09-08T13:26:47.643Z,37.87
2023-09-08T13:29:15.644Z,38.42
2023-09-08T13:31:43.758Z,38.46
2023-09-08T13:34:10.658Z,37.09
2023-09-08T13:36:37.610Z,38.16
2023-09-08T13:39:06.838Z,38.15
2023-09-08T13:41:33.971Z,38.51
2023-09-08T13:44:03.066Z,38.27
2023-09-08T13:46:29.823Z,38.49
2023-09-08T13:48:59.139Z,37.70
2023-09-08T13:51:28.271Z,37.57
2023-09-08T13:53:57.841Z,37.00
2023-09-08T13:56:26.387Z,37.05
2023-09-08T13:58:57.178Z,37.25
2023-09-08T14:01:26.890Z,37.44
2023-09-08T14:04:03.171Z,37.53
2023-09-08T14:09:40.798Z,37.70
2023-09-08T14:14:41.073Z,37.56
2023-09-08T14:17:08.060Z,36.71
2023-09-08T14:19:35.782Z,36.97
2023-09-08T14:22:02.432Z,37.25
2023-09-08T14:24:29.118Z,37.68
2023-09-08T14:26:55.930Z,37.59
2023-09-08T14:29:22.890Z,37.69
2023-09-08T14:31:49.886Z,37.71
2023-09-08T14:34:16.620Z,37.45
2023-09-08T14:36:43.537Z,37.50
2023-09-08T14:39:12.578Z,37.48
2023-09-08T14:41:39.212Z,37.03
2023-09-08T14:44:06.151Z,37.78
2023-09-08T14:46:32.896Z,37.73
2023-09-08T14:48:59.509Z,37.41
2023-09-08T14:51:28.253Z,37.04
2023-09-08T14:53:54.974Z,37.02
2023-09-08T14:56:21.951Z,38.10
2023-09-08T14:58:52.397Z,38.10
2023-09-08T15:01:26.142Z,37.96
2023-09-08T15:03:54.523Z,37.31
2023-09-08T15:06:21.441Z,36.88
2023-09-08T15:08:48.509Z,36.32
2023-09-08T15:11:16.014Z,36.70
2023-09-08T15:13:43.935Z,36.20
2023-09-08T15:16:10.773Z,36.58
2023-09-08T15:18:37.753Z,34.92
2023-09-08T15:21:04.500Z,35.08
2023-09-08T15:23:31.195Z,35.21
2023-09-08T15:25:58.162Z,35.66
2023-09-08T15:28:25.259Z,35.31
2023-09-08T15:30:54.219Z,34.40
2023-09-08T15:33:21.477Z,33.72
2023-09-08T15:35:48.426Z,33.93
2023-09-08T15:38:28.215Z,34.23
2023-09-08T15:40:55.127Z,34.75
2023-09-08T15:43:22.602Z,33.48
2023-09-08T15:45:50.260Z,34.02
2023-09-08T15:48:26.069Z,33.58
2023-09-08T15:51:11.290Z,32.88
2023-09-08T15:53:38.515Z,33.41
2023-09-08T15:56:05.930Z,33.33
2023-09-08T15:58:35.252Z,34.92
2023-09-08T16:01:16.531Z,32.14
2023-09-08T16:03:45.754Z,31.98
2023-09-08T16:06:14.679Z,32.57
2023-09-08T16:08:41.606Z,32.58
2023-09-08T16:11:12.213Z,33.46
2023-09-08T16:13:41.358Z,33.65
2023-09-08T16:16:08.313Z,33.50
2023-09-08T16:18:35.863Z,34.05
2023-09-08T16:21:02.824Z,33.10
2023-09-08T16:23:29.704Z,33.79
2023-09-08T16:25:56.723Z,32.82
2023-09-08T16:31:14.236Z,33.38
2023-09-08T16:33:40.901Z,33.56
2023-09-08T16:36:08.794Z,32.28
2023-09-08T16:38:36.684Z,32.37
2023-09-08T16:41:03.671Z,31.63
2023-09-08T16:43:30.624Z,32.42
2023-09-08T16:45:59.884Z,31.33
2023-09-08T16:48:28.512Z,31.27
2023-09-08T16:51:02.531Z,31.15
2023-09-08T16:53:29.473Z,30.96
2023-09-08T16:55:56.173Z,32.34
2023-09-08T16:58:23.031Z,31.23
2023-09-08T17:00:49.830Z,31.97
2023-09-08T17:03:16.915Z,31.85
2023-09-08T17:05:46.054Z,31.83
2023-09-08T17:08:13.008Z,31.28
2023-09-08T17:10:44.832Z,30.41
2023-09-08T17:13:11.744Z,31.66
2023-09-08T17:15:38.575Z,31.09
2023-09-08T17:18:05.541Z,31.00
2023-09-08T17:20:36.330Z,30.60
2023-09-08T17:23:03.160Z,30.77
2023-09-08T17:25:29.666Z,30.98
2023-09-08T17:27:57.602Z,31.02
2023-09-08T17:30:24.391Z,31.54
2023-09-08T17:32:51.457Z,32.05
2023-09-08T17:35:18.403Z,32.36
2023-09-08T17:37:45.125Z,32.46
2023-09-08T17:40:12.010Z,32.66
2023-09-08T17:42:41.077Z,32.50
2023-09-08T17:45:07.891Z,32.48
2023-09-08T17:47:34.592Z,32.97
2023-09-08T17:50:01.126Z,33.40
2023-09-08T17:52:27.803Z,33.62
2023-09-08T17:54:55.733Z,33.74
2023-09-08T17:57:22.591Z,33.75
2023-09-08T17:59:51.216Z,33.90
2023-09-08T18:02:18.668Z,34.95
2023-09-08T18:04:45.407Z,35.44
2023-09-08T18:07:13.391Z,35.63
2023-09-08T18:09:40.101Z,36.01
2023-09-08T18:12:06.778Z,36.05
2023-09-08T18:14:33.564Z,35.97
2023-09-08T18:17:00.172Z,36.24
2023-09-08T18:19:27.110Z,36.02
2023-09-08T18:21:53.919Z,36.94
2023-09-08T18:24:23.876Z,37.95
2023-09-08T18:26:50.810Z,37.85
2023-09-08T18:29:17.770Z,38.11
2023-09-08T18:31:44.658Z,38.49
2023-09-08T18:34:11.765Z,37.83
2023-09-08T18:36:38.389Z,38.38
2023-09-08T18:39:07.670Z,38.12
2023-09-08T18:41:35.180Z,37.85
2023-09-08T18:44:02.008Z,38.56
2023-09-08T18:46:28.994Z,38.59
2023-09-08T18:48:57.813Z,38.64
2023-09-08T18:51:25.634Z,38.62
2023-09-08T18:53:52.495Z,38.90
2023-09-08T18:56:19.376Z,39.35
2023-09-08T18:58:46.231Z,39.31
2023-09-08T19:01:15.151Z,39.27
2023-09-08T19:03:42.144Z,39.19
2023-09-08T19:06:08.732Z,39.26
2023-09-08T19:08:38.897Z,39.01
2023-09-08T19:11:05.837Z,39.82
2023-09-08T19:13:34.751Z,40.33
2023-09-08T19:16:22.687Z,39.99
2023-09-08T19:18:49.339Z,40.15
2023-09-08T19:21:18.142Z,40.82
2023-09-08T19:23:44.991Z,42.19
2023-09-08T19:26:13.569Z,42.64
2023-09-08T19:28:40.638Z,41.65
2023-09-08T19:31:07.543Z,40.91
2023-09-08T19:33:34.234Z,39.60
2023-09-08T19:36:02.144Z,40.41
2023-09-08T19:38:31.101Z,41.50
2023-09-08T19:40:59.816Z,41.65
2023-09-08T19:43:27.353Z,42.49
2023-09-08T19:45:53.937Z,41.88
2023-09-08T19:48:20.972Z,42.01
2023-09-08T19:50:47.887Z,41.90
2023-09-08T19:53:14.560Z,41.24
2023-09-08T19:55:41.444Z,40.12
2023-09-08T19:58:09.342Z,40.21
2023-09-08T20:00:38.029Z,40.34
2023-09-08T20:03:07.603Z,39.87
2023-09-08T20:05:34.348Z,40.44
2023-09-08T20:08:01.003Z,40.53
2023-09-08T20:10:27.717Z,39.71
2023-09-08T20:13:01.620Z,39.67
2023-09-08T20:15:31.511Z,40.71
2023-09-08T20:18:00.609Z,42.14
2023-09-08T20:20:27.204Z,41.03
2023-09-08T20:22:56.283Z,41.96
2023-09-08T20:25:23.977Z,41.83
2023-09-08T20:27:52.821Z,41.82
2023-09-08T20:30:19.695Z,41.79
2023-09-08T20:32:46.520Z,41.59
2023-09-08T20:35:13.975Z,41.25
2023-09-08T20:37:40.622Z,40.51
2023-09-08T20:40:07.435Z,40.31
2023-09-08T20:42:34.211Z,40.32
2023-09-08T20:45:01.104Z,41.03
2023-09-08T20:47:28.261Z,41.78
2023-09-08T20:49:57.923Z,41.45
2023-09-08T20:52:27.797Z,41.01
2023-09-08T20:54:54.662Z,41.63
2023-09-08T20:57:21.312Z,41.36
2023-09-08T20:59:47.958Z,41.95
2023-09-08T21:02:16.738Z,41.56
2023-09-08T21:04:46.745Z,42.23
2023-09-08T21:07:13.634Z,41.80
2023-09-08T21:09:40.594Z,41.95
2023-09-08T21:12:07.249Z,41.69
2023-09-08T21:14:35.959Z,41.86
2023-09-08T21:17:02.904Z,42.20
2023-09-08T21:19:29.507Z,41.78
2023-09-08T21:21:56.558Z,42.04
2023-09-08T21:24:23.421Z,42.94
2023-09-08T21:26:51.095Z,42.49
2023-09-08T21:29:18.221Z,41.99
2023-09-08T21:31:45.973Z,42.13
2023-09-08T21:34:12.951Z,42.02
2023-09-08T21:36:40.378Z,42.80
2023-09-08T21:39:07.424Z,42.10
2023-09-08T21:41:34.515Z,42.82
2023-09-08T21:44:01.336Z,43.42
2023-09-08T21:46:28.747Z,43.63
2023-09-08T21:48:58.650Z,44.22
2023-09-08T21:51:26.338Z,44.60
2023-09-08T21:53:53.344Z,43.87
2023-09-08T21:56:20.280Z,43.59
2023-09-08T21:58:47.588Z,42.96
2023-09-08T22:01:14.521Z,42.74
2023-09-08T22:03:49.133Z,43.14
2023-09-08T22:06:16.091Z,43.16
2023-09-08T22:08:42.990Z,43.90
2023-09-08T22:11:09.658Z,43.67
2023-09-08T22:13:37.733Z,43.58
2023-09-08T22:16:05.033Z,43.80
2023-09-08T22:18:31.859Z,44.04
2023-09-08T22:20:58.940Z,43.41
2023-09-08T22:23:25.645Z,43.49
2023-09-08T22:25:54.120Z,44.21
2023-09-08T22:28:28.282Z,43.72
2023-09-08T22:30:55.212Z,44.20
2023-09-08T22:33:22.334Z,44.50
2023-09-08T22:35:50.551Z,44.19
2023-09-08T22:38:18.694Z,44.50
2023-09-08T22:40:52.768Z,44.99
2023-09-08T22:43:19.793Z,45.32
2023-09-08T22:45:46.905Z,44.75
2023-09-08T22:48:13.707Z,44.98
2023-09-08T22:50:40.444Z,45.01
2023-09-08T22:53:10.094Z,44.71
2023-09-08T22:55:37.131Z,45.61
2023-09-08T22:58:04.666Z,45.90
2023-09-08T23:00:31.918Z,46.54
2023-09-08T23:02:59.697Z,46.48
2023-09-08T23:05:26.805Z,47.28
2023-09-08T23:07:53.746Z,48.30
2023-09-08T23:10:27.765Z,48.26
2023-09-08T23:12:54.710Z,47.54
2023-09-08T23:15:22.737Z,48.06
2023-09-08T23:17:55.564Z,49.33
2023-09-08T23:20:24.070Z,49.51
2023-09-08T23:22:52.575Z,49.62
2023-09-08T23:28:00.749Z,48.44
2023-09-08T23:30:28.348Z,48.42
2023-09-08T23:33:08.757Z,48.92
2023-09-08T23:35:35.579Z,48.59
2023-09-08T23:38:04.253Z,49.17
2023-09-08T23:40:34.887Z,48.58
2023-09-08T23:43:02.346Z,48.90
2023-09-08T23:45:29.764Z,48.86
2023-09-08T23:48:02.193Z,49.82
2023-09-08T23:50:29.506Z,49.87
2023-09-08T23:52:56.113Z,50.44
2023-09-08T23:55:25.330Z,51.47
2023-09-08T23:57:52.548Z,51.88
